Time;durP1;ratioP1;P1;durP2;ratioP2;P2;SDS_P1;SDS_P2;PMS_P1;PMS_P2;Temp;Humidity;BMP_temperature;BMP_pressure;BME280_temperature;BME280_humidity;BME280_pressure;Samples;Min_cycle;Max_cycle;Signal;HPM_P1;HPM_P2
2021/04/23 00:01:24;;;;;;;;;;;;;;;10.85;85.76;101450.01;1774986;78;20240;-76
2021/04/23 00:03:58;;;;;;;;;;;;;;;10.83;85.69;101444.88;1756885;81;20141;-78
2021/04/23 00:06:31;;;;;;;;;;;;;;;10.84;85.60;101447.02;1757165;81;20593;-76
2021/04/23 00:09:01;;;;;;;;;;;;;;;10.85;85.41;101446.92;1756760;81;21207;-76
2021/04/23 00:11:33;;;;;;;;;;;;;;;10.89;85.14;101448.44;1757213;81;20129;-78
2021/04/23 00:14:01;;;;;;;;;;;;;;;10.91;84.90;101447.07;1756958;81;20596;-76
2021/04/23 00:16:31;;;;;;;;;;;;;;;10.92;84.62;101440.48;1757032;81;20878;-76
2021/04/23 00:18:59;;;;;;;;;;;;;;;10.93;84.27;101449.11;1757069;81;20503;-76
2021/04/23 00:21:26;;;;;;;;;;;;;;;10.91;84.03;101442.69;1756928;81;22678;-77
2021/04/23 00:23:54;;;;;;;;;;;;;;;10.91;83.81;101449.67;1756874;81;20248;-76
2021/04/23 00:26:22;;;;;;;;;;;;;;;10.93;83.59;101451.70;1756885;81;20245;-76
2021/04/23 00:28:50;;;;;;;;;;;;;;;10.95;83.32;101449.39;1757048;81;21279;-78
2021/04/23 00:31:19;;;;;;;;;;;;;;;10.96;83.11;101449.78;1757191;81;20220;-77
2021/04/23 00:33:47;;;;;;;;;;;;;;;10.96;83.00;101448.94;1757172;81;22140;-77
2021/04/23 00:36:14;;;;;;;;;;;;;;;10.97;82.83;101450.63;1756961;81;20514;-77
2021/04/23 00:38:42;;;;;;;;;;;;;;;10.96;82.63;101448.48;1756957;81;20217;-76
2021/04/23 00:41:13;;;;;;;;;;;;;;;10.96;82.47;101448.48;1756837;81;20245;-76
2021/04/23 00:43:43;;;;;;;;;;;;;;;10.98;82.24;101445.78;1756927;81;20253;-76
2021/04/23 00:46:13;;;;;;;;;;;;;;;10.98;81.95;101437.54;1756953;81;21130;-75
2021/04/23 00:48:45;;;;;;;;;;;;;;;11.03;81.61;101439.89;1756759;81;20224;-78
2021/04/23 00:51:20;;;;;;;;;;;;;;;11.04;81.26;101434.59;1756907;81;20145;-77
2021/04/23 00:53:50;;;;;;;;;;;;;;;11.06;80.90;101432.77;1756897;81;20165;-76
2021/04/23 00:56:21;;;;;;;;;;;;;;;11.09;80.66;101433.06;1756992;81;20137;-78
2021/04/23 00:58:49;;;;;;;;;;;;;;;11.09;80.46;101430.00;1756917;81;20494;-77
2021/04/23 01:01:23;;;;;;;;;;;;;;;11.10;80.30;101429.55;1764919;80;20214;-75
2021/04/23 01:03:53;;;;;;;;;;;;;;;11.10;80.15;101422.56;1788830;80;20217;-77
2021/04/23 01:06:23;;;;;;;;;;;;;;;11.11;80.03;101426.84;1788746;80;20877;-77
2021/04/23 01:08:53;;;;;;;;;;;;;;;11.13;79.85;101428.08;1789030;80;20469;-79
2021/04/23 01:11:22;;;;;;;;;;;;;;;11.14;79.77;101425.38;1788929;80;22101;-77
2021/04/23 01:13:50;;;;;;;;;;;;;;;11.17;79.54;101423.55;1788678;80;20214;-78
2021/04/23 01:16:19;;;;;;;;;;;;;;;11.20;79.36;101421.59;1788789;80;20281;-76
2021/04/23 01:18:48;;;;;;;;;;;;;;;11.24;79.05;101417.91;1788952;80;20131;-76
2021/04/23 01:21:20;;;;;;;;;;;;;;;11.26;78.89;101410.88;1788909;80;20286;-77
2021/04/23 01:23:49;;;;;;;;;;;;;;;11.28;78.80;101412.07;1789130;80;21412;-77
2021/04/23 01:26:18;;;;;;;;;;;;;;;11.28;78.66;101412.07;1788791;80;20229;-76
2021/04/23 01:28:47;;;;;;;;;;;;;;;11.31;78.43;101411.89;1788823;80;20210;-73
2021/04/23 01:31:17;;;;;;;;;;;;;;;11.32;78.16;101409.23;1788813;80;20250;-78
2021/04/23 01:33:48;;;;;;;;;;;;;;;11.38;77.69;101411.92;1788765;80;20218;-76
2021/04/23 01:36:16;;;;;;;;;;;;;;;11.41;77.46;101411.75;1788664;80;21645;-76
2021/04/23 01:38:47;;;;;;;;;;;;;;;11.44;77.19;101415.02;1788885;80;20704;-75
2021/04/23 01:41:15;;;;;;;;;;;;;;;11.47;77.00;101416.13;1788844;80;20221;-76
2021/04/23 01:43:44;;;;;;;;;;;;;;;11.48;76.83;101420.42;1788763;80;20139;-77
2021/04/23 01:46:11;;;;;;;;;;;;;;;11.51;76.73;101417.64;1788945;80;20515;-76
2021/04/23 01:48:39;;;;;;;;;;;;;;;11.53;76.75;101416.23;1788917;80;21198;-77
2021/04/23 01:51:12;;;;;;;;;;;;;;;11.55;76.76;101418.30;1788845;80;20504;-76
2021/04/23 01:53:40;;;;;;;;;;;;;;;11.56;76.76;101422.55;1788889;80;20131;-76
2021/04/23 01:56:08;;;;;;;;;;;;;;;11.57;76.83;101424.23;1788728;80;20468;-76
2021/04/23 01:58:36;;;;;;;;;;;;;;;11.57;76.90;101425.08;1788827;80;20243;-76
2021/04/23 02:01:06;;;;;;;;;;;;;;;11.57;77.00;101425.08;1788861;80;21189;-76
2021/04/23 02:03:38;;;;;;;;;;;;;;;11.57;77.25;101423.78;1788883;80;20503;-76
2021/04/23 02:06:06;;;;;;;;;;;;;;;11.57;77.43;101420.34;1788730;80;20523;-77
2021/04/23 02:08:34;;;;;;;;;;;;;;;11.54;77.64;101419.22;1788704;80;20878;-76
2021/04/23 02:11:05;;;;;;;;;;;;;;;11.53;77.96;101420.13;1788817;80;20147;-76
2021/04/23 02:13:48;;;;;;;;;;;;;;;11.57;78.27;101413.84;1969916;73;20252;-75
2021/04/23 02:16:17;;;;;;;;;;;;;;;11.56;78.40;101417.35;1938671;74;20168;-75
2021/04/23 02:18:45;;;;;;;;;;;;;;;11.55;78.47;101416.51;1938552;74;21346;-78
2021/04/23 02:21:14;;;;;;;;;;;;;;;11.55;78.64;101421.71;1938719;74;20188;-75
2021/04/23 02:23:44;;;;;;;;;;;;;;;11.55;78.76;101417.81;1939639;74;20623;-74
2021/04/23 02:26:14;;;;;;;;;;;;;;;11.55;78.86;101420.90;1940002;74;20168;-76
2021/04/23 02:28:44;;;;;;;;;;;;;;;11.54;79.10;101423.12;1939760;74;20180;-74
2021/04/23 02:31:15;;;;;;;;;;;;;;;11.54;79.24;101422.66;1940677;74;22056;-73
2021/04/23 02:33:45;;;;;;;;;;;;;;;11.55;79.45;101425.61;1939674;74;20156;-76
2021/04/23 02:36:14;;;;;;;;;;;;;;;11.55;79.59;101424.80;1939028;74;20121;-76
2021/04/23 02:38:43;;;;;;;;;;;;;;;11.54;79.88;101421.81;1938716;74;20145;-76
2021/04/23 02:41:12;;;;;;;;;;;;;;;11.51;80.27;101418.09;1938602;74;20212;-76
2021/04/23 02:43:42;;;;;;;;;;;;;;;11.47;80.47;101422.63;1938590;74;20510;-76
2021/04/23 02:46:10;;;;;;;;;;;;;;;11.47;80.75;101421.33;1938404;74;20514;-74
2021/04/23 02:48:41;;;;;;;;;;;;;;;11.48;80.93;101424.77;1938379;74;20476;-77
2021/04/23 02:51:15;;;;;;;;;;;;;;;11.50;80.99;101423.75;1938360;74;20292;-74
2021/04/23 02:53:44;;;;;;;;;;;;;;;11.51;81.14;101418.09;1938216;74;20208;-74
2021/04/23 02:56:12;;;;;;;;;;;;;;;11.53;81.16;101424.88;1938481;74;21182;-74
2021/04/23 02:58:40;;;;;;;;;;;;;;;11.54;81.21;101423.12;1938428;74;20208;-75
2021/04/23 03:01:14;;;;;;;;;;;;;;;11.55;81.30;101422.20;1938581;74;20463;-75
2021/04/23 03:03:44;;;;;;;;;;;;;;;11.54;81.38;101427.86;1938324;74;20141;-78
2021/04/23 03:06:12;;;;;;;;;;;;;;;11.55;81.44;101430.00;1938385;74;20192;-74
2021/04/23 03:08:41;;;;;;;;;;;;;;;11.57;81.41;101422.48;1938511;74;21172;-76
2021/04/23 03:11:14;;;;;;;;;;;;;;;11.58;81.32;101420.72;1938341;74;20482;-75
2021/04/23 03:13:45;;;;;;;;;;;;;;;11.60;81.27;101424.05;1937569;73;20145;-76
2021/04/23 03:16:14;;;;;;;;;;;;;;;11.62;81.21;101422.20;1937892;74;20200;-77
2021/04/23 03:18:42;;;;;;;;;;;;;;;11.64;81.21;101426.41;1938351;74;20235;-75
2021/04/23 03:21:12;;;;;;;;;;;;;;;11.65;81.13;101423.31;1938356;74;21338;-75
2021/04/23 03:23:40;;;;;;;;;;;;;;;11.65;81.11;101428.05;1938069;74;20216;-76
2021/04/23 03:26:09;;;;;;;;;;;;;;;11.67;81.13;101431.42;1937761;74;20295;-75
2021/04/23 03:28:38;;;;;;;;;;;;;;;11.71;81.14;101427.38;1937770;74;20235;-76
2021/04/23 03:31:06;;;;;;;;;;;;;;;11.72;81.16;101430.33;1937703;74;20617;-75
2021/04/23 03:33:34;;;;;;;;;;;;;;;11.74;81.21;101433.23;1937743;74;22627;-73
2021/04/23 03:36:04;;;;;;;;;;;;;;;11.75;81.17;101430.14;1937659;74;20200;-75
2021/04/23 03:38:34;;;;;;;;;;;;;;;11.76;81.17;101437.88;1937747;74;20224;-77
2021/04/23 03:41:05;;;;;;;;;;;;;;;11.77;81.16;101434.35;1937642;74;20184;-76
2021/04/23 03:43:34;;;;;;;;;;;;;;;11.79;81.07;101432.95;1937817;74;20121;-74
2021/04/23 03:46:03;;;;;;;;;;;;;;;11.80;81.09;101437.23;1937607;74;21177;-75
2021/04/23 03:48:31;;;;;;;;;;;;;;;11.82;81.12;101439.27;1937687;74;20122;-78
2021/04/23 03:50:59;;;;;;;;;;;;;;;11.84;81.17;101438.73;1937615;74;20209;-75
2021/04/23 03:53:26;;;;;;;;;;;;;;;11.86;81.03;101443.37;1937643;74;20471;-75
2021/04/23 03:55:55;;;;;;;;;;;;;;;11.87;80.83;101441.16;1937589;74;20287;-76
2021/04/23 03:58:22;;;;;;;;;;;;;;;11.90;80.75;101444.38;1937943;74;22217;-76
2021/04/23 04:00:56;;;;;;;;;;;;;;;11.94;80.45;101446.34;1937638;74;20209;-76
2021/04/23 04:03:25;;;;;;;;;;;;;;;11.97;80.26;101450.91;1937079;74;20184;-76
2021/04/23 04:05:54;;;;;;;;;;;;;;;12.03;79.98;101450.53;1937626;74;20153;-76
2021/04/23 04:08:22;;;;;;;;;;;;;;;12.09;79.71;101452.77;1937666;74;20205;-76
2021/04/23 04:10:52;;;;;;;;;;;;;;;12.14;79.37;101454.65;1937701;74;20704;-76
2021/04/23 04:13:21;;;;;;;;;;;;;;;12.17;79.12;101458.36;1937443;73;20296;-76
2021/04/23 04:15:48;;;;;;;;;;;;;;;12.20;78.82;101453.44;1937653;74;20303;-76
2021/04/23 04:18:17;;;;;;;;;;;;;;;12.22;78.52;101454.66;1937449;74;20514;-75
2021/04/23 04:20:47;;;;;;;;;;;;;;;12.23;78.28;101453.25;1937710;74;20110;-76
2021/04/23 04:23:17;;;;;;;;;;;;;;;12.26;78.11;101456.97;1937560;74;21321;-77
2021/04/23 04:25:47;;;;;;;;;;;;;;;12.29;77.82;101455.48;1937745;74;20469;-76
2021/04/23 04:28:15;;;;;;;;;;;;;;;12.31;77.53;101450.20;1937623;74;20148;-77
2021/04/23 04:30:43;;;;;;;;;;;;;;;12.36;77.06;101454.64;1937742;74;20133;-75
2021/04/23 04:33:11;;;;;;;;;;;;;;;12.38;76.71;101452.31;1937517;74;20472;-75
2021/04/23 04:35:39;;;;;;;;;;;;;;;12.42;76.19;101456.87;1937559;74;22717;-75
2021/04/23 04:38:08;;;;;;;;;;;;;;;12.45;75.79;101451.02;1937527;74;20130;-75
2021/04/23 04:40:36;;;;;;;;;;;;;;;12.49;75.59;101452.52;1937572;74;20487;-75
2021/04/23 04:43:08;;;;;;;;;;;;;;;12.56;75.21;101455.58;1937805;74;20264;-75
2021/04/23 04:45:35;;;;;;;;;;;;;;;12.62;74.67;101457.34;1937603;74;20145;-76
2021/04/23 04:48:05;;;;;;;;;;;;;;;12.68;74.28;101457.41;1937722;74;21782;-75
2021/04/23 04:50:37;;;;;;;;;;;;;;;12.74;73.88;101464.84;1937528;74;20266;-76
2021/04/23 04:53:06;;;;;;;;;;;;;;;12.81;73.31;101463.53;1937113;74;20256;-75
2021/04/23 04:55:37;;;;;;;;;;;;;;;12.87;72.67;101459.24;1937612;74;20154;-75
2021/04/23 04:58:06;;;;;;;;;;;;;;;12.94;72.58;101457.09;1937551;74;20118;-75
2021/04/23 05:00:34;;;;;;;;;;;;;;;13.01;72.48;101450.10;1937717;74;21781;-76
2021/04/23 05:03:01;;;;;;;;;;;;;;;13.05;72.19;101463.28;1937501;74;20121;-76
2021/04/23 05:05:31;;;;;;;;;;;;;;;13.10;71.55;101464.34;1937759;74;20141;-75
2021/04/23 05:07:58;;;;;;;;;;;;;;;13.14;71.34;101463.22;1937641;74;20121;-76
2021/04/23 05:10:27;;;;;;;;;;;;;;;13.22;70.88;101464.85;1937684;74;20483;-75
2021/04/23 05:12:55;;;;;;;;;;;;;;;13.29;70.50;101458.78;1937014;74;21679;-75
2021/04/23 05:15:23;;;;;;;;;;;;;;;13.38;70.01;101451.66;1935233;74;20185;-75
2021/04/23 05:17:51;;;;;;;;;;;;;;;13.46;69.71;101455.92;1935242;74;20105;-76
2021/04/23 05:20:20;;;;;;;;;;;;;;;13.55;69.30;101461.38;1935364;74;20188;-76
2021/04/23 05:22:48;;;;;;;;;;;;;;;13.63;68.93;101453.02;1935626;74;20491;-75
2021/04/23 05:25:19;;;;;;;;;;;;;;;13.69;68.20;101467.80;1935182;74;21118;-76
2021/04/23 05:27:48;;;;;;;;;;;;;;;13.73;68.35;101464.06;1935361;74;20109;-75
2021/04/23 05:30:18;;;;;;;;;;;;;;;13.81;67.98;101471.86;1935343;74;20141;-76
2021/04/23 05:32:46;;;;;;;;;;;;;;;13.84;67.68;101473.80;1935226;73;20126;-76
2021/04/23 05:35:16;;;;;;;;;;;;;;;13.84;67.19;101480.78;1935339;74;20129;-76
2021/04/23 05:37:44;;;;;;;;;;;;;;;13.84;67.61;101480.31;1935496;73;21249;-75
2021/04/23 05:40:15;;;;;;;;;;;;;;;13.92;67.87;101479.78;1935402;74;20125;-76
2021/04/23 05:42:44;;;;;;;;;;;;;;;14.06;67.42;101484.93;1935327;74;20192;-75
2021/04/23 05:45:13;;;;;;;;;;;;;;;14.15;66.89;101487.75;1935297;74;20486;-75
2021/04/23 05:47:41;;;;;;;;;;;;;;;14.22;66.47;101490.78;1935169;74;20122;-74
2021/04/23 05:50:11;;;;;;;;;;;;;;;14.29;66.40;101494.16;1934958;74;21633;-75
2021/04/23 05:52:39;;;;;;;;;;;;;;;14.38;66.27;101498.44;1935285;74;20220;-77
2021/04/23 05:55:08;;;;;;;;;;;;;;;14.44;65.96;101502.77;1935236;74;20121;-78
2021/04/23 05:57:36;;;;;;;;;;;;;;;14.39;66.37;101501.42;1935111;73;20483;-74
2021/04/23 06:00:05;;;;;;;;;;;;;;;14.35;67.01;101504.71;1922230;72;20291;-78
2021/04/23 06:02:35;;;;;;;;;;;;;;;14.31;67.06;101503.20;1903809;74;21144;-75
2021/04/23 06:05:05;;;;;;;;;;;;;;;14.29;67.86;101504.60;1899016;75;20298;-75
2021/04/23 06:07:33;;;;;;;;;;;;;;;14.32;68.18;101502.28;1898843;75;20258;-77
2021/04/23 06:10:01;;;;;;;;;;;;;;;14.41;68.23;101501.67;1898841;75;20222;-77
2021/04/23 06:12:29;;;;;;;;;;;;;;;14.50;67.99;101499.73;1899474;75;20144;-79
2021/04/23 06:14:57;;;;;;;;;;;;;;;14.58;67.61;101500.52;1901538;75;21231;-75
2021/04/23 06:17:29;;;;;;;;;;;;;;;14.68;65.99;101496.30;1901570;75;20647;-78
2021/04/23 06:19:59;;;;;;;;;;;;;;;14.76;65.01;101497.45;1906472;74;20622;-77
2021/04/23 06:22:27;;;;;;;;;;;;;;;14.84;63.27;101500.34;1917360;74;20563;-76
2021/04/23 06:24:57;;;;;;;;;;;;;;;14.93;62.96;101504.58;1902468;74;20412;-73
2021/04/23 06:27:26;;;;;;;;;;;;;;;15.00;61.88;101505.80;1934484;74;21417;-77
2021/04/23 06:29:58;;;;;;;;;;;;;;;15.10;61.96;101498.50;1934496;74;20172;-74
2021/04/23 06:32:28;;;;;;;;;;;;;;;15.19;61.04;101500.92;1920051;74;20287;-75
2021/04/23 06:34:56;;;;;;;;;;;;;;;15.28;59.66;101508.13;1921596;74;20126;-76
2021/04/23 06:37:24;;;;;;;;;;;;;;;15.34;59.18;101505.91;1901122;75;20298;-74
2021/04/23 06:39:53;;;;;;;;;;;;;;;15.39;59.69;101510.78;1904759;74;21630;-77
2021/04/23 06:42:22;;;;;;;;;;;;;;;15.40;60.39;101502.00;1919024;74;20214;-79
2021/04/23 06:44:51;;;;;;;;;;;;;;;15.42;59.82;101505.33;1924401;74;20490;-78
2021/04/23 06:47:19;;;;;;;;;;;;;;;15.43;59.30;101504.39;1937926;74;20220;-79
2021/04/23 06:49:47;;;;;;;;;;;;;;;15.47;59.76;101515.00;1937474;74;20227;-77
2021/04/23 06:52:15;;;;;;;;;;;;;;;15.56;59.41;101519.59;1923198;74;21630;-79
2021/04/23 06:54:43;;;;;;;;;;;;;;;15.66;60.09;101527.13;1928258;74;20302;-77
2021/04/23 06:57:11;;;;;;;;;;;;;;;15.62;61.79;101536.62;1863898;77;20230;-79
2021/04/23 06:59:39;;;;;;;;;;;;;;;15.49;61.19;101532.75;1899317;75;20346;-77
2021/04/23 07:02:07;;;;;;;;;;;;;;;15.38;59.93;101533.95;1901282;75;20254;-75
2021/04/23 07:04:35;;;;;;;;;;;;;;;15.33;58.57;101538.69;1901491;75;21314;-77
2021/04/23 07:07:03;;;;;;;;;;;;;;;15.27;55.97;101539.14;1901437;75;20309;-80
2021/04/23 07:09:32;;;;;;;;;;;;;;;15.24;55.82;101536.74;1901237;75;20206;-74
2021/04/23 07:12:02;;;;;;;;;;;;;;;15.21;56.19;101540.42;1901339;75;20641;-78
2021/04/23 07:14:33;;;;;;;;;;;;;;;15.11;57.79;101542.48;1899514;74;20191;-77
2021/04/23 07:17:01;;;;;;;;;;;;;;;14.93;60.57;101561.61;1899137;75;22126;-75
2021/04/23 07:19:29;;;;;;;;;;;;;;;14.41;64.04;101551.29;1888080;75;20609;-80
2021/04/23 07:21:58;;;;;;;;;;;;;;;13.86;66.80;101542.35;1889112;75;20135;-76
2021/04/23 07:24:28;;;;;;;;;;;;;;;13.57;67.26;101549.92;1898984;75;20216;-74
2021/04/23 07:26:55;;;;;;;;;;;;;;;13.36;66.20;101565.18;1842141;75;20215;-75
2021/04/23 07:29:24;;;;;;;;;;;;;;;13.23;68.79;101547.33;1898410;75;21188;-78
2021/04/23 07:31:52;;;;;;;;;;;;;;;13.24;69.95;101545.92;1898176;75;20634;-78
2021/04/23 07:34:22;;;;;;;;;;;;;;;13.31;69.20;101547.67;1898535;75;20469;-76
2021/04/23 07:36:50;;;;;;;;;;;;;;;13.39;68.43;101553.25;1898531;75;20203;-79
2021/04/23 07:39:20;;;;;;;;;;;;;;;13.43;66.81;101546.08;1897054;75;20231;-77
2021/04/23 07:41:49;;;;;;;;;;;;;;;13.52;67.57;101545.48;1870470;75;21177;-77
2021/04/23 07:44:16;;;;;;;;;;;;;;;13.60;67.37;101545.81;1893850;75;20199;-77
2021/04/23 07:46:45;;;;;;;;;;;;;;;13.71;66.37;101545.97;1898941;75;20564;-80
2021/04/23 07:49:13;;;;;;;;;;;;;;;13.85;65.88;101553.72;1898894;75;20230;-76
2021/04/23 07:51:42;;;;;;;;;;;;;;;13.94;66.38;101558.82;1893883;74;20214;-76
2021/04/23 07:54:11;;;;;;;;;;;;;;;14.05;66.28;101558.47;1885435;75;21637;-77
2021/04/23 07:56:40;;;;;;;;;;;;;;;14.20;66.11;101555.30;1888392;74;20294;-77
2021/04/23 07:59:08;;;;;;;;;;;;;;;14.35;66.03;101559.55;1893053;74;20576;-79
2021/04/23 08:01:36;;;;;;;;;;;;;;;14.45;65.66;101563.21;1886694;74;20555;-78
2021/04/23 08:04:05;;;;;;;;;;;;;;;14.55;66.20;101568.64;1884630;76;20443;-77
2021/04/23 08:06:33;;;;;;;;;;;;;;;14.62;66.05;101559.42;1863972;77;22118;-75
2021/04/23 08:09:02;;;;;;;;;;;;;;;14.52;66.43;101567.05;1862898;75;20236;-76
2021/04/23 08:11:38;;;;;;;;;;;;;;;14.50;64.97;101565.48;1904001;75;20718;-79
2021/04/23 08:14:06;;;;;;;;;;;;;;;14.68;63.99;101568.14;1892828;75;20769;-77
2021/04/23 08:16:39;;;;;;;;;;;;;;;14.81;64.12;101563.75;1903898;75;20504;-76
2021/04/23 08:19:07;;;;;;;;;;;;;;;14.90;64.45;101562.30;1904498;75;21180;-75
2021/04/23 08:21:37;;;;;;;;;;;;;;;15.09;63.63;101560.06;1904563;75;20564;-77
2021/04/23 08:24:15;;;;;;;;;;;;;;;15.27;61.34;101562.67;1904154;75;20175;-78
2021/04/23 08:26:47;;;;;;;;;;;;;;;15.44;61.02;101569.32;1904116;75;20238;-76
2021/04/23 08:29:16;;;;;;;;;;;;;;;15.51;60.18;101570.09;1904818;75;20116;-79
2021/04/23 08:31:46;;;;;;;;;;;;;;;15.47;59.91;101566.02;1904591;75;20227;-77
2021/04/23 08:34:17;;;;;;;;;;;;;;;15.39;60.90;101565.71;1904431;75;20321;-76
2021/04/23 08:36:47;;;;;;;;;;;;;;;15.24;62.91;101563.73;1901992;75;20199;-76
2021/04/23 08:39:15;;;;;;;;;;;;;;;15.06;64.53;101566.31;1897431;75;20414;-73
2021/04/23 08:41:46;;;;;;;;;;;;;;;14.94;64.74;101563.73;1895257;75;20262;-77
2021/04/23 08:44:15;;;;;;;;;;;;;;;14.89;65.16;101559.30;1900980;75;21184;-75
2021/04/23 08:46:45;;;;;;;;;;;;;;;14.90;65.41;101568.83;1901061;75;20219;-79
2021/04/23 08:49:17;;;;;;;;;;;;;;;14.86;65.72;101564.75;1901253;75;20250;-75
2021/04/23 08:51:47;;;;;;;;;;;;;;;14.73;66.27;101569.52;1873515;75;20157;-78
2021/04/23 08:54:21;;;;;;;;;;;;;;;14.67;66.55;101566.03;1865702;77;20658;-77
2021/04/23 08:56:49;;;;;;;;;;;;;;;14.76;67.02;101565.39;1864912;77;21196;-76
2021/04/23 08:59:17;;;;;;;;;;;;;;;14.85;65.58;101570.44;1865160;77;20185;-78
2021/04/23 09:01:46;;;;;;;;;;;;;;;14.87;66.77;101574.27;1866279;77;20162;-77
2021/04/23 09:04:14;;;;;;;;;;;;;;;14.87;65.87;101571.66;1866137;77;20324;-75
2021/04/23 09:06:43;;;;;;;;;;;;;;;14.81;66.62;101565.89;1866128;77;20162;-75
2021/04/23 09:09:13;;;;;;;;;;;;;;;14.90;66.04;101572.75;1865946;77;21187;-81
2021/04/23 09:11:43;;;;;;;;;;;;;;;14.93;64.85;101575.14;1866226;77;20185;-78
2021/04/23 09:14:14;;;;;;;;;;;;;;;14.85;65.22;101574.36;1865593;77;20288;-76
2021/04/23 09:16:46;;;;;;;;;;;;;;;14.76;64.72;101578.92;1865530;77;20245;-80
2021/04/23 09:19:24;;;;;;;;;;;;;;;14.65;66.39;101578.34;1866026;77;20526;-76
2021/04/23 09:22:03;;;;;;;;;;;;;;;14.61;68.17;101574.75;1866141;77;21255;-77
2021/04/23 09:24:55;;;;;;;;;;;;;;;14.54;68.97;101580.02;1866030;77;20218;-77
2021/04/23 09:27:27;;;;;;;;;;;;;;;14.41;70.17;101582.63;1866057;77;20145;-76
2021/04/23 09:29:58;;;;;;;;;;;;;;;14.21;71.38;101580.01;1866162;77;20191;-77
2021/04/23 09:32:30;;;;;;;;;;;;;;;14.12;72.57;101584.54;1865999;77;20265;-77
2021/04/23 09:35:06;;;;;;;;;;;;;;;14.07;72.27;101577.46;1866001;77;21186;-75
2021/04/23 09:37:59;;;;;;;;;;;;;;;14.06;71.83;101578.88;1865949;77;20216;-75
2021/04/23 09:40:32;;;;;;;;;;;;;;;13.95;72.59;101579.58;1833671;77;20308;-76
2021/04/23 09:43:02;;;;;;;;;;;;;;;13.76;74.21;101581.25;1866370;77;20130;-77
2021/04/23 09:45:32;;;;;;;;;;;;;;;13.59;75.57;101583.28;1866230;76;20574;-77
2021/04/23 09:48:01;;;;;;;;;;;;;;;13.53;76.74;101588.40;1866501;77;21438;-76
2021/04/23 09:50:33;;;;;;;;;;;;;;;13.37;77.58;101579.06;1865692;77;20680;-74
2021/04/23 09:53:01;;;;;;;;;;;;;;;13.20;78.46;101572.28;1865844;77;20229;-75
2021/04/23 09:55:32;;;;;;;;;;;;;;;13.04;78.88;101580.19;1865844;77;20182;-76
2021/04/23 09:58:02;;;;;;;;;;;;;;;12.92;79.65;101582.25;1865963;77;20221;-77
2021/04/23 10:00:33;;;;;;;;;;;;;;;12.85;80.07;101584.84;1866064;76;22071;-78
2021/04/23 10:03:03;;;;;;;;;;;;;;;12.77;79.75;101579.25;1865846;77;20305;-80
2021/04/23 10:05:35;;;;;;;;;;;;;;;12.74;80.28;101578.14;1866297;77;20209;-76
2021/04/23 10:08:09;;;;;;;;;;;;;;;12.74;81.04;101576.84;1866162;77;20149;-79
2021/04/23 10:10:52;;;;;;;;;;;;;;;12.71;81.25;101578.32;1882548;75;20382;-77
2021/04/23 10:13:28;;;;;;;;;;;;;;;12.69;82.06;101582.34;1881153;75;22319;-76
2021/04/23 10:15:56;;;;;;;;;;;;;;;12.70;82.78;101575.34;1865157;77;20606;-76
2021/04/23 10:18:24;;;;;;;;;;;;;;;12.75;83.16;101579.82;1864785;76;20307;-78
2021/04/23 10:20:57;;;;;;;;;;;;;;;12.80;83.04;101567.80;1877493;75;20211;-76
2021/04/23 10:23:25;;;;;;;;;;;;;;;12.79;83.22;101571.36;1901404;75;20238;-78
2021/04/23 10:25:54;;;;;;;;;;;;;;;12.81;81.92;101569.48;1901293;75;21856;-79
2021/04/23 10:28:24;;;;;;;;;;;;;;;12.78;81.63;101561.41;1902255;75;21008;-76
2021/04/23 10:30:54;;;;;;;;;;;;;;;12.82;82.06;101564.20;1901553;75;20132;-77
2021/04/23 10:33:23;;;;;;;;;;;;;;;12.85;81.91;101564.47;1901477;75;20294;-80
2021/04/23 10:35:54;;;;;;;;;;;;;;;12.89;82.09;101565.97;1901916;75;20514;-79
2021/04/23 10:38:26;;;;;;;;;;;;;;;12.89;82.19;101563.36;1901880;75;21624;-76
2021/04/23 10:41:00;;;;;;;;;;;;;;;12.89;82.59;101557.66;1901262;75;20173;-77
2021/04/23 10:43:32;;;;;;;;;;;;;;;12.89;82.99;101556.36;1901582;75;20231;-74
2021/04/23 10:46:12;;;;;;;;;;;;;;;12.89;83.98;101546.43;1901788;75;20659;-76
2021/04/23 10:48:46;;;;;;;;;;;;;;;12.90;83.84;101550.69;1902445;75;20229;-78
2021/04/23 10:51:24;;;;;;;;;;;;;;;12.92;83.84;101550.98;1901969;75;20140;-76
2021/04/23 10:53:54;;;;;;;;;;;;;;;12.97;83.40;101550.23;1900702;75;20197;-75
2021/04/23 10:56:26;;;;;;;;;;;;;;;13.02;83.32;101551.23;1901392;75;20223;-77
2021/04/23 10:58:56;;;;;;;;;;;;;;;12.99;83.79;101557.47;1899989;75;20699;-75
2021/04/23 11:01:26;;;;;;;;;;;;;;;12.96;84.02;101552.91;1880321;75;20223;-75
2021/04/23 11:04:00;;;;;;;;;;;;;;;12.89;84.96;101552.45;1899413;75;21971;-82
2021/04/23 11:06:31;;;;;;;;;;;;;;;12.83;85.79;101548.11;1866260;77;20253;-75
2021/04/23 11:09:03;;;;;;;;;;;;;;;12.69;85.93;101547.64;1866763;77;20146;-81
2021/04/23 11:11:39;;;;;;;;;;;;;;;12.61;87.53;101538.14;1889772;75;20495;-76
2021/04/23 11:14:23;;;;;;;;;;;;;;;12.54;88.34;101540.77;1879209;75;20320;-76
2021/04/23 11:16:53;;;;;;;;;;;;;;;12.53;88.95;101542.98;1875306;75;21188;-77
2021/04/23 11:19:31;;;;;;;;;;;;;;;12.53;88.64;101541.22;1901286;75;20124;-74
2021/04/23 11:21:55;;;;;;;;;;;;;;;12.53;89.62;101534.72;1869940;75;20196;-75
2021/04/23 11:24:27;;;;;;;;;;;;;;;12.64;91.16;101531.44;1807561;77;20213;-76
2021/04/23 11:27:04;;;;;;;;;;;;;;;12.64;91.35;101536.65;1866132;77;20310;-75
2021/04/23 11:29:42;;;;;;;;;;;;;;;12.70;90.63;101540.17;1877380;75;20219;-77
2021/04/23 11:32:17;;;;;;;;;;;;;;;12.81;89.95;101537.77;1901532;75;20183;-81
2021/04/23 11:34:49;;;;;;;;;;;;;;;12.84;88.30;101525.86;1901378;75;20568;-75
2021/04/23 11:37:19;;;;;;;;;;;;;;;12.81;88.12;101534.33;1901528;75;20594;-78
2021/04/23 11:39:54;;;;;;;;;;;;;;;12.78;88.54;101531.45;1901415;75;20219;-77
2021/04/23 11:42:32;;;;;;;;;;;;;;;12.78;88.95;101524.09;1901320;75;22110;-76
2021/04/23 11:45:09;;;;;;;;;;;;;;;12.77;89.64;101527.16;1900626;75;20317;-77
2021/04/23 11:47:44;;;;;;;;;;;;;;;12.80;90.82;101521.77;1902001;75;20104;-77
2021/04/23 11:50:19;;;;;;;;;;;;;;;12.82;90.81;101521.69;1881656;75;20134;-77
2021/04/23 11:52:50;;;;;;;;;;;;;;;12.68;90.12;101520.76;1901647;75;20143;-78
2021/04/23 11:55:26;;;;;;;;;;;;;;;12.63;91.17;101511.10;1901519;75;21180;-73
2021/04/23 11:58:07;;;;;;;;;;;;;;;12.61;91.05;101518.15;1901731;75;20502;-76
2021/04/23 12:00:35;;;;;;;;;;;;;;;12.55;91.61;101521.13;1901696;75;20506;-76
2021/04/23 12:03:12;;;;;;;;;;;;;;;12.53;92.85;101525.60;1902093;75;20206;-78
2021/04/23 12:05:43;;;;;;;;;;;;;;;12.59;93.78;101521.78;1901799;75;20223;-77
2021/04/23 12:08:20;;;;;;;;;;;;;;;12.59;94.21;101520.48;1902220;75;22119;-78
2021/04/23 12:10:56;;;;;;;;;;;;;;;12.54;93.85;101524.65;1901381;75;20485;-75
2021/04/23 12:13:28;;;;;;;;;;;;;;;12.42;94.75;101523.25;1901925;75;20199;-79
2021/04/23 12:15:59;;;;;;;;;;;;;;;12.31;95.35;101523.07;1900024;75;20246;-79
2021/04/23 12:18:27;;;;;;;;;;;;;;;12.16;96.41;101528.70;1899366;75;20266;-77
2021/04/23 12:20:57;;;;;;;;;;;;;;;11.97;98.14;101523.73;1899345;75;21181;-82
2021/04/23 12:23:32;;;;;;;;;;;;;;;11.80;99.70;101521.75;1899522;75;20615;-79
2021/04/23 12:26:06;;;;;;;;;;;;;;;11.67;100.00;101522.42;1899388;75;20488;-78
2021/04/23 12:28:38;;;;;;;;;;;;;;;11.62;100.00;101515.78;1898731;75;20275;-77
2021/04/23 12:31:10;;;;;;;;;;;;;;;11.50;100.00;101512.58;1899308;75;20211;-77
2021/04/23 12:33:47;;;;;;;;;;;;;;;11.35;100.00;101506.95;1899435;75;21188;-77
2021/04/23 12:36:24;;;;;;;;;;;;;;;11.20;100.00;101507.32;1899267;75;20207;-77
2021/04/23 12:39:04;;;;;;;;;;;;;;;11.13;100.00;101506.84;1899195;75;20279;-77
2021/04/23 12:41:35;;;;;;;;;;;;;;;11.11;100.00;101502.63;1900199;75;20215;-76
2021/04/23 12:44:07;;;;;;;;;;;;;;;11.16;100.00;101491.55;1899453;75;20270;-78
2021/04/23 12:46:47;;;;;;;;;;;;;;;11.22;100.00;101487.31;1899906;75;22109;-79
2021/04/23 12:49:36;;;;;;;;;;;;;;;11.26;100.00;101489.28;1898973;75;20183;-77
2021/04/23 12:52:14;;;;;;;;;;;;;;;11.31;100.00;101481.59;1899179;75;20183;-77